createdAt,value
2018-02-10T00:01:34.115Z,27.33
2018-02-10T00:03:36.805Z,29.23
2018-02-10T00:05:39.539Z,28.65
2018-02-10T00:07:42.971Z,29.17
2018-02-10T00:09:45.625Z,29.17
2018-02-10T00:11:48.244Z,25.65
2018-02-10T00:13:51.716Z,28.40
2018-02-10T00:15:54.350Z,27.58
2018-02-10T00:17:57.774Z,30.12
2018-02-10T00:20:01.203Z,27.10
2018-02-10T00:22:03.879Z,27.23
2018-02-10T00:24:07.403Z,28.30
2018-02-10T00:26:10.765Z,28.80
2018-02-10T00:28:13.459Z,26.52
2018-02-10T00:30:16.103Z,28.25
2018-02-10T00:32:19.599Z,26.17
2018-02-10T00:34:22.281Z,26.95
2018-02-10T00:36:24.886Z,26.67
2018-02-10T00:38:27.534Z,27.65
2018-02-10T00:40:30.165Z,28.50
2018-02-10T00:42:32.858Z,28.62
2018-02-10T00:44:35.504Z,28.12
2018-02-10T00:46:38.909Z,26.35
2018-02-10T00:48:42.315Z,27.33
2018-02-10T00:50:44.965Z,27.13
2018-02-10T00:52:47.595Z,27.70
2018-02-10T00:54:50.336Z,27.73
2018-02-10T00:56:52.970Z,26.58
2018-02-10T00:58:55.635Z,27.10
2018-02-10T01:00:58.272Z,27.27
2018-02-10T01:03:00.900Z,28.15
2018-02-10T01:05:04.325Z,27.02
2018-02-10T01:07:07.766Z,26.05
2018-02-10T01:09:10.401Z,24.27
2018-02-10T01:11:13.079Z,26.58
2018-02-10T01:13:15.721Z,25.45
2018-02-10T01:15:19.164Z,26.95
2018-02-10T01:17:21.790Z,25.58
2018-02-10T01:19:24.428Z,26.00
2018-02-10T01:21:27.814Z,24.45
2018-02-10T01:23:30.461Z,25.88
2018-02-10T01:25:33.091Z,25.45
2018-02-10T01:27:35.830Z,24.65
2018-02-10T01:29:39.352Z,25.58
2018-02-10T01:31:42.720Z,26.23
2018-02-10T01:33:45.408Z,25.17
2018-02-10T01:35:48.027Z,24.52
2018-02-10T01:37:50.719Z,24.48
2018-02-10T01:39:53.365Z,23.98
2018-02-10T01:41:56.739Z,25.15
2018-02-10T01:43:59.401Z,24.25
2018-02-10T01:46:02.065Z,24.58
2018-02-10T01:48:05.459Z,23.87
2018-02-10T01:50:19.859Z,24.98
2018-02-10T01:52:22.634Z,24.77
2018-02-10T01:54:26.155Z,22.80
2018-02-10T01:56:29.560Z,23.67
2018-02-10T01:58:32.949Z,23.60
2018-02-10T02:00:35.575Z,21.95
2018-02-10T02:02:38.943Z,24.75
2018-02-10T02:04:41.539Z,23.12
2018-02-10T02:06:44.170Z,23.10
2018-02-10T02:08:46.815Z,24.73
2018-02-10T02:10:49.470Z,23.30
2018-02-10T02:12:52.102Z,22.87
2018-02-10T02:14:54.826Z,21.77
2018-02-10T02:16:57.515Z,24.63
2018-02-10T02:19:00.160Z,24.00
2018-02-10T02:21:03.561Z,22.52
2018-02-10T02:23:06.221Z,22.45
2018-02-10T02:25:08.824Z,23.50
2018-02-10T02:27:11.465Z,22.30
2018-02-10T02:29:14.984Z,21.50
2018-02-10T02:31:18.397Z,22.00
2018-02-10T02:33:21.785Z,23.00
2018-02-10T02:35:24.517Z,20.65
2018-02-10T02:37:28.040Z,23.10
2018-02-10T02:39:30.671Z,22.37
2018-02-10T02:41:33.279Z,22.35
2018-02-10T02:43:36.025Z,18.35
2018-02-10T02:45:39.379Z,21.17
2018-02-10T02:47:42.024Z,20.23
2018-02-10T02:49:45.425Z,21.45
2018-02-10T02:51:48.852Z,20.77
2018-02-10T02:53:52.265Z,20.70
2018-02-10T02:55:55.642Z,19.52
2018-02-10T02:57:58.299Z,20.42
2018-02-10T03:00:00.987Z,21.17
2018-02-10T03:02:03.545Z,21.60
2018-02-10T03:04:06.180Z,19.98
2018-02-10T03:06:08.809Z,20.60
2018-02-10T03:08:11.568Z,20.73
2018-02-10T03:10:14.946Z,19.83
2018-02-10T03:12:17.675Z,19.80
2018-02-10T03:14:21.106Z,20.12
2018-02-10T03:16:23.770Z,20.52
2018-02-10T03:18:26.422Z,20.10
2018-02-10T03:20:29.045Z,19.75
2018-02-10T03:22:31.701Z,20.70
2018-02-10T03:24:34.336Z,20.00
2018-02-10T03:26:36.981Z,19.52
2018-02-10T03:28:39.665Z,19.40
2018-02-10T03:30:42.361Z,20.62
2018-02-10T03:32:45.744Z,20.10
2018-02-10T03:34:48.420Z,20.73
2018-02-10T03:36:51.207Z,19.87
2018-02-10T03:38:53.874Z,19.87
2018-02-10T03:40:57.285Z,19.00
2018-02-10T03:43:00.700Z,19.80
2018-02-10T03:45:04.076Z,19.27
2018-02-10T03:47:07.525Z,19.50
2018-02-10T03:49:10.936Z,19.42
2018-02-10T03:51:14.301Z,19.05
2018-02-10T03:53:17.052Z,18.27
2018-02-10T03:55:20.425Z,19.60
2018-02-10T03:57:23.167Z,20.20
2018-02-10T03:59:26.592Z,18.87
2018-02-10T04:01:29.213Z,19.77
2018-02-10T04:03:31.835Z,20.88
2018-02-10T04:05:34.520Z,18.92
2018-02-10T04:07:37.387Z,19.50
2018-02-10T04:09:39.998Z,17.75
2018-02-10T04:11:42.606Z,19.63
2018-02-10T04:13:45.250Z,19.15
2018-02-10T04:15:48.628Z,19.10
2018-02-10T04:17:51.997Z,19.03
2018-02-10T04:19:54.749Z,19.35
2018-02-10T04:21:57.422Z,18.50
2018-02-10T04:24:00.067Z,17.75
2018-02-10T04:26:02.666Z,18.15
2018-02-10T04:28:06.081Z,18.50
2018-02-10T04:30:09.488Z,16.80
2018-02-10T04:32:12.861Z,17.92
2018-02-10T04:34:15.492Z,17.73
2018-02-10T04:36:18.177Z,18.58
2018-02-10T04:38:20.854Z,17.90
2018-02-10T04:40:23.448Z,17.75
2018-02-10T04:42:26.206Z,18.10
2018-02-10T04:44:29.616Z,18.87
2018-02-10T04:46:33.010Z,18.42
2018-02-10T04:48:35.662Z,17.60
2018-02-10T04:50:38.274Z,17.00
2018-02-10T04:52:40.926Z,18.65
2018-02-10T04:54:43.534Z,17.17
2018-02-10T04:56:46.203Z,18.00
2018-02-10T04:58:49.624Z,17.75
2018-02-10T05:00:53.046Z,17.15
2018-02-10T05:02:56.507Z,17.50
2018-02-10T05:04:59.133Z,19.00
2018-02-10T05:07:01.767Z,18.62
2018-02-10T05:09:04.411Z,17.52
2018-02-10T05:11:07.186Z,18.17
2018-02-10T05:13:09.812Z,18.55
2018-02-10T05:15:12.573Z,19.75
2018-02-10T05:17:15.204Z,17.10
2018-02-10T05:19:17.810Z,19.70
2018-02-10T05:21:20.483Z,18.35
2018-02-10T05:23:23.222Z,18.45
2018-02-10T05:25:26.602Z,17.50
2018-02-10T05:27:29.266Z,18.70
2018-02-10T05:29:31.961Z,18.10
2018-02-10T05:31:34.834Z,19.00
2018-02-10T05:33:38.262Z,18.12
2018-02-10T05:35:40.884Z,18.20
2018-02-10T05:37:43.505Z,18.42
2018-02-10T05:39:46.162Z,19.57
2018-02-10T05:41:48.816Z,20.20
2018-02-10T05:43:51.467Z,18.63
2018-02-10T05:45:54.132Z,19.20
2018-02-10T05:47:57.717Z,18.00
2018-02-10T05:50:00.329Z,18.25
2018-02-10T05:52:02.989Z,19.62
2018-02-10T05:54:05.665Z,18.80
2018-02-10T05:56:08.340Z,18.02
2018-02-10T05:58:11.769Z,19.30
2018-02-10T06:00:14.394Z,19.20
2018-02-10T06:02:17.143Z,19.37
2018-02-10T06:04:20.526Z,18.67
2018-02-10T06:06:23.202Z,18.50
2018-02-10T06:08:25.878Z,20.15
2018-02-10T06:10:28.548Z,17.77
2018-02-10T06:12:31.945Z,18.08
2018-02-10T06:14:34.550Z,19.98
2018-02-10T06:16:37.262Z,18.70
2018-02-10T06:18:40.694Z,18.92
2018-02-10T06:20:43.355Z,18.33
2018-02-10T06:22:45.994Z,19.13
2018-02-10T06:24:48.604Z,18.25
2018-02-10T06:26:51.298Z,18.50
2018-02-10T06:28:53.913Z,20.10
2018-02-10T06:30:56.518Z,20.83
2018-02-10T06:32:59.175Z,19.30
2018-02-10T06:35:01.804Z,21.20
2018-02-10T06:37:04.433Z,19.10
2018-02-10T06:39:07.854Z,19.58
2018-02-10T06:41:11.273Z,19.27
2018-02-10T06:43:14.682Z,20.75
2018-02-10T06:45:18.058Z,20.83
2018-02-10T06:47:20.744Z,21.50
2018-02-10T06:49:23.398Z,21.52
2018-02-10T06:51:26.804Z,21.02
2018-02-10T06:53:30.181Z,20.48
2018-02-10T06:55:32.911Z,22.15
2018-02-10T06:57:36.428Z,20.50
2018-02-10T06:59:40.562Z,20.25
2018-02-10T07:01:43.954Z,21.05
2018-02-10T07:03:46.583Z,19.27
2018-02-10T07:05:49.169Z,19.95
2018-02-10T07:07:52.796Z,19.25
2018-02-10T07:09:56.304Z,21.45
2018-02-10T07:11:59.706Z,21.10
2018-02-10T07:14:03.109Z,20.00
2018-02-10T07:16:05.768Z,20.27
2018-02-10T07:18:08.393Z,20.00
2018-02-10T07:20:11.073Z,20.70
2018-02-10T07:22:13.679Z,19.05
2018-02-10T07:24:16.319Z,20.10
2018-02-10T07:26:18.985Z,23.20
2018-02-10T07:28:21.664Z,19.48
2018-02-10T07:30:24.306Z,20.20
2018-02-10T07:32:27.823Z,20.00
2018-02-10T07:34:31.295Z,21.23
2018-02-10T07:36:34.030Z,20.27
2018-02-10T07:38:36.739Z,20.50
2018-02-10T07:40:40.110Z,18.70
2018-02-10T07:42:42.794Z,19.50
2018-02-10T07:44:45.554Z,19.60
2018-02-10T07:46:48.196Z,18.75
2018-02-10T07:48:50.939Z,19.07
2018-02-10T07:50:54.306Z,19.20
2018-02-10T07:52:57.728Z,19.87
2018-02-10T07:55:00.366Z,19.57
2018-02-10T07:57:03.835Z,19.80
2018-02-10T07:59:07.316Z,20.67
2018-02-10T08:01:09.954Z,19.57
2018-02-10T08:03:12.683Z,20.43
2018-02-10T08:05:16.042Z,18.90
2018-02-10T08:07:18.690Z,19.45
2018-02-10T08:09:21.290Z,19.43
2018-02-10T08:11:24.719Z,18.73
2018-02-10T08:13:28.119Z,19.20
2018-02-10T08:15:31.531Z,20.83
2018-02-10T08:17:34.887Z,20.97
2018-02-10T08:19:37.547Z,19.57
2018-02-10T08:21:40.939Z,19.70
2018-02-10T08:23:43.580Z,20.60
2018-02-10T08:25:46.312Z,20.70
2018-02-10T08:27:48.914Z,19.37
2018-02-10T08:29:51.530Z,19.83
2018-02-10T08:31:54.172Z,21.50
2018-02-10T08:33:56.811Z,20.97
2018-02-10T08:35:59.484Z,19.57
2018-02-10T08:38:02.115Z,20.00
2018-02-10T08:40:04.776Z,20.57
2018-02-10T08:42:07.409Z,21.57
2018-02-10T08:44:10.064Z,22.17
2018-02-10T08:46:12.667Z,22.07
2018-02-10T08:48:15.325Z,20.20
2018-02-10T08:50:17.962Z,21.45
2018-02-10T08:52:20.554Z,21.30
2018-02-10T08:54:23.225Z,19.93
2018-02-10T08:56:25.892Z,20.73
2018-02-10T08:58:29.328Z,20.40
2018-02-10T09:00:32.062Z,22.53
2018-02-10T09:02:34.810Z,21.60
2018-02-10T09:04:38.221Z,21.40
2018-02-10T09:06:41.659Z,21.40
2018-02-10T09:08:44.275Z,21.37
2018-02-10T09:10:46.952Z,21.93
2018-02-10T09:12:49.590Z,21.63
2018-02-10T09:14:52.244Z,20.83
2018-02-10T09:16:54.895Z,20.80
2018-02-10T09:18:57.520Z,21.77
2018-02-10T09:21:00.160Z,20.80
2018-02-10T09:23:02.836Z,20.60
2018-02-10T09:25:05.453Z,22.13
2018-02-10T09:27:08.206Z,23.95
2018-02-10T09:29:11.717Z,21.40
2018-02-10T09:31:15.180Z,23.00
2018-02-10T09:33:17.807Z,23.20
2018-02-10T09:35:20.461Z,23.50
2018-02-10T09:37:23.127Z,23.85
2018-02-10T09:39:26.505Z,22.33
2018-02-10T09:41:29.932Z,22.60
2018-02-10T09:43:32.562Z,23.27
2018-02-10T09:45:35.247Z,24.63
2018-02-10T09:47:38.775Z,23.33
2018-02-10T09:49:42.165Z,23.77
2018-02-10T09:51:44.795Z,22.70
2018-02-10T09:53:47.500Z,23.93
2018-02-10T09:55:50.141Z,22.67
2018-02-10T09:57:52.734Z,23.90
2018-02-10T09:59:55.379Z,23.70
2018-02-10T10:01:58.046Z,24.03
2018-02-10T10:04:00.756Z,24.10
2018-02-10T10:06:04.142Z,23.87
2018-02-10T10:08:06.988Z,24.83
2018-02-10T10:10:09.635Z,23.23
2018-02-10T10:12:12.331Z,23.40
2018-02-10T10:14:14.963Z,24.70
2018-02-10T10:16:18.477Z,24.63
2018-02-10T10:18:21.892Z,22.17
2018-02-10T10:20:25.280Z,25.27
2018-02-10T10:22:27.973Z,24.13
2018-02-10T10:24:30.716Z,25.37
2018-02-10T10:26:34.156Z,24.20
2018-02-10T10:28:36.812Z,23.53
2018-02-10T10:30:40.187Z,24.70
2018-02-10T10:32:42.875Z,25.30
2018-02-10T10:34:45.495Z,26.60
2018-02-10T10:36:48.119Z,25.07
2018-02-10T10:38:51.530Z,24.23
2018-02-10T10:40:54.953Z,27.50
2018-02-10T10:42:57.642Z,23.75
2018-02-10T10:45:01.041Z,27.25
2018-02-10T10:47:04.521Z,25.00
2018-02-10T10:49:07.272Z,25.70
2018-02-10T10:51:10.651Z,25.40
2018-02-10T10:53:13.413Z,25.77
2018-02-10T10:55:16.183Z,25.57
2018-02-10T10:57:19.630Z,24.13
2018-02-10T10:59:22.288Z,24.17
2018-02-10T11:01:25.713Z,27.15
2018-02-10T11:03:29.093Z,25.73
2018-02-10T11:05:31.824Z,25.03
2018-02-10T11:07:35.336Z,25.57
2018-02-10T11:09:38.690Z,26.03
2018-02-10T11:11:41.299Z,24.00
2018-02-10T11:13:44.623Z,26.23
2018-02-10T11:15:47.256Z,24.83
2018-02-10T11:17:50.672Z,22.92
2018-02-10T11:19:54.054Z,21.17
2018-02-10T11:21:56.778Z,28.40
2018-02-10T11:24:00.293Z,27.20
2018-02-10T11:26:03.707Z,26.10
2018-02-10T11:28:07.244Z,27.25
2018-02-10T11:30:09.929Z,26.30
2018-02-10T11:32:13.358Z,26.80
2018-02-10T11:34:15.953Z,26.30
2018-02-10T11:36:18.611Z,27.10
2018-02-10T11:38:21.327Z,27.13
2018-02-10T11:40:23.982Z,25.33
2018-02-10T11:42:26.593Z,25.07
2018-02-10T11:44:29.292Z,24.63
2018-02-10T11:46:32.152Z,26.60
2018-02-10T11:48:34.819Z,26.37
2018-02-10T11:50:38.208Z,29.23
2018-02-10T11:52:40.902Z,25.63
2018-02-10T11:54:43.571Z,27.50
2018-02-10T11:56:46.212Z,26.03
2018-02-10T11:58:48.833Z,27.03
2018-02-10T12:00:51.515Z,27.20
2018-02-10T12:02:54.318Z,27.57
2018-02-10T12:04:57.674Z,26.80
2018-02-10T12:07:00.349Z,26.40
2018-02-10T12:09:03.009Z,28.33
2018-02-10T12:11:05.637Z,26.90
2018-02-10T12:13:08.335Z,27.47
2018-02-10T12:15:10.962Z,26.90
2018-02-10T12:17:13.632Z,26.80
2018-02-10T12:19:16.308Z,27.60
2018-02-10T12:21:19.717Z,28.40
2018-02-10T12:23:23.154Z,25.87
2018-02-10T12:25:25.863Z,29.00
2018-02-10T12:27:29.233Z,27.80
2018-02-10T12:29:31.835Z,28.00
2018-02-10T12:31:34.508Z,31.13
2018-02-10T12:33:37.122Z,29.27
2018-02-10T12:35:39.735Z,29.70
2018-02-10T12:37:43.147Z,29.50
2018-02-10T12:39:46.540Z,33.57
2018-02-10T12:41:49.170Z,26.37
2018-02-10T12:43:52.524Z,26.27
2018-02-10T12:45:55.226Z,27.00
2018-02-10T12:48:05.862Z,27.30
2018-02-10T12:50:08.542Z,27.13
2018-02-10T12:52:12.870Z,26.07
2018-02-10T12:54:15.572Z,26.30
2018-02-10T12:56:18.948Z,25.53
2018-02-10T12:58:21.603Z,28.30
2018-02-10T13:00:24.248Z,25.23
2018-02-10T13:02:26.892Z,28.90
2018-02-10T13:04:29.592Z,27.50
2018-02-10T13:06:32.294Z,25.40
2018-02-10T13:08:34.945Z,27.17
2018-02-10T13:10:37.669Z,26.33
2018-02-10T13:12:41.193Z,27.40
2018-02-10T13:14:44.672Z,25.57
2018-02-10T13:16:47.260Z,24.83
2018-02-10T13:18:50.639Z,26.57
2018-02-10T13:20:53.303Z,26.43
2018-02-10T13:22:56.753Z,25.67
2018-02-10T13:24:59.350Z,26.40
2018-02-10T13:27:01.990Z,25.37
2018-02-10T13:29:04.713Z,25.40
2018-02-10T13:31:08.235Z,24.70
2018-02-10T13:33:11.621Z,26.00
2018-02-10T13:35:14.266Z,25.93
2018-02-10T13:37:16.931Z,27.00
2018-02-10T13:39:20.353Z,26.83
2018-02-10T13:41:23.158Z,26.00
2018-02-10T13:43:26.659Z,24.67
2018-02-10T13:45:30.040Z,27.47
2018-02-10T13:47:32.664Z,28.03
2018-02-10T13:49:35.323Z,26.60
2018-02-10T13:51:37.965Z,26.10
2018-02-10T13:53:41.349Z,24.90
2018-02-10T13:55:44.029Z,26.83
2018-02-10T13:57:46.794Z,25.10
2018-02-10T13:59:49.425Z,26.93
2018-02-10T14:01:52.094Z,25.70
2018-02-10T14:03:54.765Z,25.47
2018-02-10T14:05:58.157Z,25.70
2018-02-10T14:08:00.828Z,27.10
2018-02-10T14:10:03.526Z,25.70
2018-02-10T14:12:06.170Z,25.40
2018-02-10T14:14:09.584Z,25.40
2018-02-10T14:16:12.995Z,25.93
2018-02-10T14:18:15.704Z,25.23
2018-02-10T14:20:18.379Z,24.70
2018-02-10T14:22:21.015Z,24.63
2018-02-10T14:24:23.663Z,24.70
2018-02-10T14:26:26.330Z,24.73
2018-02-10T14:28:28.986Z,24.80
2018-02-10T14:30:32.380Z,28.87
2018-02-10T14:32:35.096Z,22.70
2018-02-10T14:34:38.609Z,25.50
2018-02-10T14:36:42.028Z,24.67
2018-02-10T14:38:45.416Z,24.57
2018-02-10T14:40:48.136Z,25.70
2018-02-10T14:42:51.509Z,25.17
2018-02-10T14:44:54.152Z,26.40
2018-02-10T14:46:57.561Z,27.40
2018-02-10T14:49:00.950Z,26.03
2018-02-10T14:51:03.574Z,25.53
2018-02-10T14:53:06.981Z,26.57
2018-02-10T14:55:10.360Z,26.00
2018-02-10T14:57:13.006Z,25.57
2018-02-10T14:59:16.450Z,26.70
2018-02-10T15:01:19.179Z,25.17
2018-02-10T15:03:21.859Z,26.40
2018-02-10T15:05:24.498Z,25.53
2018-02-10T15:07:27.925Z,26.20
2018-02-10T15:09:31.337Z,27.07
2018-02-10T15:11:34.722Z,25.67
2018-02-10T15:13:37.326Z,26.23
2018-02-10T15:15:39.957Z,26.80
2018-02-10T15:17:42.684Z,26.10
2018-02-10T15:19:45.352Z,25.50
2018-02-10T15:21:47.961Z,26.00
2018-02-10T15:23:50.734Z,25.70
2018-02-10T15:25:54.147Z,26.70
2018-02-10T15:27:57.659Z,27.67
2018-02-10T15:30:12.934Z,27.67
2018-02-10T15:32:27.350Z,26.27
2018-02-10T15:34:41.773Z,25.70
2018-02-10T15:36:45.287Z,25.93
2018-02-10T15:38:48.691Z,27.53
2018-02-10T15:40:51.406Z,25.47
2018-02-10T15:42:54.917Z,26.53
2018-02-10T15:44:58.434Z,27.17
2018-02-10T15:47:01.871Z,26.87
2018-02-10T15:49:04.546Z,27.50
2018-02-10T15:51:07.969Z,25.43
2018-02-10T15:53:10.585Z,26.57
2018-02-10T15:55:13.296Z,26.67
2018-02-10T15:57:15.925Z,26.90
2018-02-10T15:59:18.532Z,29.87
2018-02-10T16:01:21.252Z,25.60
2018-02-10T16:03:24.660Z,28.77
2018-02-10T16:05:28.076Z,25.70
2018-02-10T16:07:31.543Z,25.60
2018-02-10T16:09:34.164Z,27.97
2018-02-10T16:11:36.911Z,25.57
2018-02-10T16:13:39.682Z,28.27
2018-02-10T16:15:43.227Z,26.53
2018-02-10T16:17:45.898Z,25.67
2018-02-10T16:19:49.432Z,27.53
2018-02-10T16:21:52.067Z,25.27
2018-02-10T16:23:54.781Z,25.73
2018-02-10T16:25:57.446Z,23.53
2018-02-10T16:28:00.107Z,24.07
2018-02-10T16:30:02.741Z,29.10
2018-02-10T16:32:05.451Z,26.80
2018-02-10T16:34:08.120Z,26.53
2018-02-10T16:36:10.820Z,24.93
2018-02-10T16:38:13.439Z,27.40
2018-02-10T16:40:16.078Z,25.50
2018-02-10T16:42:18.747Z,25.60
2018-02-10T16:44:21.477Z,26.30
2018-02-10T16:46:24.103Z,27.10
2018-02-10T16:48:26.783Z,30.27
2018-02-10T16:50:30.288Z,27.70
2018-02-10T16:52:33.739Z,28.83
2018-02-10T16:54:36.416Z,27.20
2018-02-10T16:56:39.067Z,24.40
2018-02-10T16:58:41.802Z,43.37
2018-02-10T17:00:45.195Z,28.67
2018-02-10T17:02:47.876Z,24.40
2018-02-10T17:04:50.547Z,30.20
2018-02-10T17:06:53.274Z,25.90
2018-02-10T17:08:55.996Z,25.50
2018-02-10T17:10:59.419Z,24.13
2018-02-10T17:13:02.855Z,24.40
2018-02-10T17:15:05.517Z,25.60
2018-02-10T17:17:08.183Z,24.53
2018-02-10T17:19:10.896Z,28.40
2018-02-10T17:21:14.263Z,26.30
2018-02-10T17:23:17.891Z,29.20
2018-02-10T17:25:20.547Z,24.77
2018-02-10T17:27:24.013Z,26.30
2018-02-10T17:29:26.627Z,23.57
2018-02-10T17:31:29.244Z,24.47
2018-02-10T17:33:31.957Z,23.50
2018-02-10T17:35:35.348Z,24.07
2018-02-10T17:37:38.011Z,22.83
2018-02-10T17:39:40.638Z,24.00
2018-02-10T17:41:44.033Z,21.90
2018-02-10T17:43:46.778Z,22.50
2018-02-10T17:45:50.305Z,23.17
2018-02-10T17:47:52.933Z,23.73
2018-02-10T17:49:55.599Z,24.27
2018-02-10T17:51:58.998Z,24.80
2018-02-10T17:54:02.513Z,23.17
2018-02-10T17:56:05.112Z,22.83
2018-02-10T17:58:08.532Z,22.60
2018-02-10T18:00:12.044Z,22.33
2018-02-10T18:02:15.467Z,23.47
2018-02-10T18:04:18.179Z,23.13
2018-02-10T18:06:20.957Z,26.47
2018-02-10T18:08:24.384Z,23.60
2018-02-10T18:10:27.843Z,23.40
2018-02-10T18:12:30.494Z,24.60
2018-02-10T18:14:33.999Z,26.10
2018-02-10T18:16:37.484Z,23.30
2018-02-10T18:18:40.210Z,25.30
2018-02-10T18:20:43.609Z,27.47
2018-02-10T18:22:46.276Z,28.87
2018-02-10T18:24:48.936Z,27.20
2018-02-10T18:26:51.628Z,25.97
2018-02-10T18:28:55.040Z,28.63
2018-02-10T18:30:58.405Z,27.70
2018-02-10T18:33:01.020Z,26.97
2018-02-10T18:35:03.842Z,30.20
2018-02-10T18:37:07.329Z,28.40
2018-02-10T18:39:10.770Z,24.77
2018-02-10T18:41:14.230Z,27.30
2018-02-10T18:43:16.882Z,25.60
2018-02-10T18:45:20.278Z,25.20
2018-02-10T18:47:23.018Z,25.50
2018-02-10T18:49:25.654Z,24.43
2018-02-10T18:51:28.314Z,25.50
2018-02-10T18:53:30.993Z,27.20
2018-02-10T18:55:34.400Z,25.57
2018-02-10T18:57:37.813Z,23.93
2018-02-10T18:59:41.332Z,28.40
2018-02-10T19:01:44.789Z,25.57
2018-02-10T19:03:47.419Z,27.20
2018-02-10T19:05:50.142Z,26.17
2018-02-10T19:07:53.755Z,27.23
2018-02-10T19:09:57.586Z,27.23
2018-02-10T19:12:00.978Z,28.57
2018-02-10T19:14:03.605Z,26.90
2018-02-10T19:16:07.107Z,27.67
2018-02-10T19:18:10.547Z,27.30
2018-02-10T19:20:13.324Z,26.00
2018-02-10T19:22:16.768Z,27.90
2018-02-10T19:24:19.417Z,25.90
2018-02-10T19:26:22.129Z,30.37
2018-02-10T19:28:25.577Z,28.83
2018-02-10T19:30:28.245Z,28.83
2018-02-10T19:32:31.694Z,27.30
2018-02-10T19:34:34.453Z,26.80
2018-02-10T19:36:37.974Z,27.17
2018-02-10T19:38:41.495Z,23.60
2018-02-10T19:40:44.908Z,24.80
2018-02-10T19:42:48.324Z,26.23
2018-02-10T19:44:51.744Z,27.97
2018-02-10T19:46:55.189Z,28.13
2018-02-10T19:48:57.807Z,27.90
2018-02-10T19:51:01.196Z,28.20
2018-02-10T19:53:03.861Z,29.30
2018-02-10T19:55:07.283Z,30.97
2018-02-10T19:57:10.709Z,28.37
2018-02-10T19:59:13.487Z,26.70
2018-02-10T20:01:16.912Z,27.97
2018-02-10T20:03:20.418Z,27.03
2018-02-10T20:05:23.931Z,29.43
2018-02-10T20:07:27.300Z,28.33
2018-02-10T20:09:30.029Z,29.33
2018-02-10T20:11:32.640Z,28.27
2018-02-10T20:13:36.161Z,30.60
2018-02-10T20:15:39.603Z,29.20
2018-02-10T20:17:42.270Z,30.10
2018-02-10T20:19:45.785Z,28.93
2018-02-10T20:21:49.204Z,29.30
2018-02-10T20:23:52.588Z,29.40
2018-02-10T20:25:55.286Z,29.50
2018-02-10T20:27:58.001Z,30.37
2018-02-10T20:30:01.374Z,29.67
2018-02-10T20:32:04.050Z,30.80
2018-02-10T20:34:06.867Z,32.97
2018-02-10T20:36:09.489Z,30.33
2018-02-10T20:38:13.650Z,30.67
2018-02-10T20:40:17.150Z,30.30
2018-02-10T20:42:19.840Z,29.10
2018-02-10T20:44:23.285Z,29.67
2018-02-10T20:46:25.975Z,29.10
2018-02-10T20:48:29.447Z,30.50
2018-02-10T20:50:32.194Z,27.40
2018-02-10T20:52:35.635Z,31.13
2018-02-10T20:54:38.461Z,29.80
2018-02-10T20:56:41.099Z,28.40
2018-02-10T20:58:44.614Z,28.83
2018-02-10T21:00:48.030Z,28.67
2018-02-10T21:02:51.455Z,27.33
2018-02-10T21:04:54.080Z,29.57
2018-02-10T21:06:56.839Z,29.20
2018-02-10T21:09:00.298Z,26.23
2018-02-10T21:11:03.034Z,27.70
2018-02-10T21:13:05.750Z,26.03
2018-02-10T21:15:09.181Z,23.70
2018-02-10T21:17:12.682Z,24.70
2018-02-10T21:19:16.136Z,23.45
2018-02-10T21:21:18.742Z,24.00
2018-02-10T21:23:21.367Z,24.60
2018-02-10T21:25:24.031Z,17.77
2018-02-10T21:27:26.704Z,22.60
2018-02-10T21:29:29.386Z,13.00
2018-02-10T21:31:32.806Z,21.37
2018-02-10T21:33:36.250Z,21.50
2018-02-10T21:35:39.000Z,18.55
2018-02-10T21:37:41.710Z,23.50
2018-02-10T21:39:45.119Z,22.48
2018-02-10T21:41:48.636Z,22.27
2018-02-10T21:43:52.057Z,21.97
2018-02-10T21:45:55.441Z,22.77
2018-02-10T21:47:58.170Z,21.92
2018-02-10T21:50:01.571Z,22.40
2018-02-10T21:52:04.270Z,19.90
2018-02-10T21:54:07.789Z,21.90
2018-02-10T21:56:10.440Z,21.60
2018-02-10T21:58:13.191Z,21.20
2018-02-10T22:00:16.584Z,21.20
2018-02-10T22:02:19.242Z,21.65
2018-02-10T22:04:21.890Z,20.40
2018-02-10T22:06:25.311Z,19.33
2018-02-10T22:08:28.786Z,23.60
2018-02-10T22:10:31.415Z,20.00
2018-02-10T22:12:34.831Z,20.80
2018-02-10T22:14:38.249Z,20.95
2018-02-10T22:16:41.660Z,22.23
2018-02-10T22:18:45.177Z,21.70
2018-02-10T22:20:48.574Z,21.45
2018-02-10T22:22:52.128Z,20.30
2018-02-10T22:24:54.735Z,21.17
2018-02-10T22:26:57.457Z,19.93
2018-02-10T22:29:00.080Z,19.90
2018-02-10T22:31:02.802Z,21.37
2018-02-10T22:33:06.330Z,20.35
2018-02-10T22:35:08.975Z,20.90
2018-02-10T22:37:11.710Z,21.07
2018-02-10T22:39:15.127Z,20.40
2018-02-10T22:41:18.637Z,21.73
2018-02-10T22:43:22.102Z,21.07
2018-02-10T22:45:24.787Z,18.63
2018-02-10T22:47:27.437Z,19.80
2018-02-10T22:49:30.146Z,19.10
2018-02-10T22:51:33.664Z,19.83
2018-02-10T22:53:37.081Z,19.40
2018-02-10T22:55:40.470Z,19.90
2018-02-10T22:57:43.166Z,19.90
2018-02-10T22:59:45.773Z,18.43
2018-02-10T23:01:48.465Z,19.27
2018-02-10T23:03:51.180Z,19.10
2018-02-10T23:05:53.872Z,19.43
2018-02-10T23:07:56.567Z,19.00
2018-02-10T23:09:59.150Z,19.83
2018-02-10T23:12:01.870Z,19.13
2018-02-10T23:14:05.339Z,18.73
2018-02-10T23:16:07.960Z,18.47
2018-02-10T23:18:10.570Z,17.70
2018-02-10T23:20:13.317Z,17.80
2018-02-10T23:22:15.936Z,16.73
2018-02-10T23:24:18.671Z,18.13
2018-02-10T23:26:22.179Z,16.73
2018-02-10T23:28:24.882Z,17.47
2018-02-10T23:30:28.357Z,16.40
2018-02-10T23:32:30.965Z,15.80
2018-02-10T23:34:33.596Z,16.23
2018-02-10T23:36:36.392Z,17.17
2018-02-10T23:38:39.800Z,17.90
2018-02-10T23:40:42.431Z,17.60
2018-02-10T23:42:45.152Z,16.60
2018-02-10T23:44:47.792Z,17.03
2018-02-10T23:46:51.195Z,17.67
2018-02-10T23:48:53.912Z,16.43
2018-02-10T23:50:57.289Z,15.70
2018-02-10T23:52:59.945Z,16.37
2018-02-10T23:55:02.555Z,15.70
2018-02-10T23:57:05.203Z,16.00
2018-02-10T23:59:08.008Z,15.70
